Time;durP1;ratioP1;P1;durP2;ratioP2;P2;SDS_P1;SDS_P2;PMS_P1;PMS_P2;Temp;Humidity;BMP_temperature;BMP_pressure;BME280_temperature;BME280_humidity;BME280_pressure;Samples;Min_cycle;Max_cycle;Signal;HPM_P1;HPM_P2
2022/06/02 00:01:57;;;;;;;10.75;8.70;;;;;;;;;;5085480;27;20501;-63
2022/06/02 00:04:23;;;;;;;12.70;8.70;;;;;;;;;;5086594;28;20473;-63
2022/06/02 00:06:52;;;;;;;9.77;8.15;;;;;;;;;;5084144;27;20040;-63
2022/06/02 00:09:37;;;;;;;11.45;8.68;;;;;;;;;;5087690;28;20041;-64
2022/06/02 00:12:11;;;;;;;11.80;9.55;;;;;;;;;;5083919;28;20112;-63
2022/06/02 00:14:42;;;;;;;13.02;8.98;;;;;;;;;;5083839;28;20044;-63
2022/06/02 00:17:48;;;;;;;11.75;8.95;;;;;;;;;;5089782;28;20120;-64
2022/06/02 00:20:32;;;;;;;13.75;7.95;;;;;;;;;;5037886;28;20048;-63
2022/06/02 00:23:14;;;;;;;11.75;10.07;;;;;;;;;;5020212;28;20090;-63
2022/06/02 00:25:52;;;;;;;11.65;8.93;;;;;;;;;;5067292;28;20052;-64
2022/06/02 00:28:18;;;;;;;12.43;9.15;;;;;;;;;;5083727;28;20481;-63
2022/06/02 00:31:02;;;;;;;11.98;9.15;;;;;;;;;;5083778;28;20070;-64
2022/06/02 00:33:37;;;;;;;10.00;8.43;;;;;;;;;;5083994;28;20040;-63
2022/06/02 00:36:18;;;;;;;11.30;9.07;;;;;;;;;;5083884;28;20050;-63
2022/06/02 00:38:44;;;;;;;10.18;8.07;;;;;;;;;;5085971;28;20040;-63
2022/06/02 00:41:13;;;;;;;10.93;8.63;;;;;;;;;;5088711;28;20505;-64
2022/06/02 00:43:42;;;;;;;14.02;8.77;;;;;;;;;;5083825;28;20511;-63
2022/06/02 00:46:15;;;;;;;13.32;9.77;;;;;;;;;;5086731;28;20501;-63
2022/06/02 00:48:44;;;;;;;10.23;9.05;;;;;;;;;;5088305;28;20075;-63
2022/06/02 00:51:14;;;;;;;12.50;10.05;;;;;;;;;;5084158;28;20040;-64
2022/06/02 00:53:42;;;;;;;13.55;9.02;;;;;;;;;;5084602;28;20075;-64
2022/06/02 00:59:12;;;;;;;;;;;;;;;;;;5090677;27;20052;-63
2022/06/02 01:01:38;;;;;;;11.25;8.27;;;;;;;;;;5090261;28;20656;-63
2022/06/02 01:04:07;;;;;;;9.40;7.95;;;;;;;;;;5089323;27;20047;-64
2022/06/02 01:06:45;;;;;;;13.40;8.45;;;;;;;;;;5087532;28;20076;-63
2022/06/02 01:09:24;;;;;;;9.77;7.68;;;;;;;;;;5088552;27;20047;-65
2022/06/02 01:11:56;;;;;;;12.55;8.25;;;;;;;;;;5088440;27;20055;-64
2022/06/02 01:14:43;;;;;;;9.43;7.55;;;;;;;;;;5090097;27;20089;-64
2022/06/02 01:17:15;;;;;;;10.90;7.95;;;;;;;;;;5089446;27;20038;-63
2022/06/02 01:19:53;;;;;;;9.75;7.50;;;;;;;;;;5087789;27;20097;-63
2022/06/02 01:22:22;;;;;;;8.82;6.93;;;;;;;;;;5086799;28;20540;-63
2022/06/02 01:25:03;;;;;;;8.98;6.97;;;;;;;;;;5088834;27;20036;-63
2022/06/02 01:27:32;;;;;;;9.57;7.28;;;;;;;;;;5086392;27;20536;-63
2022/06/02 01:29:59;;;;;;;9.90;6.65;;;;;;;;;;5096219;28;20048;-63
2022/06/02 01:32:37;;;;;;;10.23;7.78;;;;;;;;;;5098707;27;20078;-63
2022/06/02 01:35:03;;;;;;;8.35;7.00;;;;;;;;;;5087353;28;20035;-63
2022/06/02 01:37:43;;;;;;;9.98;7.85;;;;;;;;;;5092243;27;20055;-64
2022/06/02 01:40:21;;;;;;;9.82;7.63;;;;;;;;;;5088812;28;20032;-64
2022/06/02 01:42:57;;;;;;;10.00;7.18;;;;;;;;;;5086832;28;20120;-64
2022/06/02 01:45:32;;;;;;;8.95;7.72;;;;;;;;;;5087333;27;20119;-64
2022/06/02 01:48:10;;;;;;;9.43;7.65;;;;;;;;;;5092907;28;20047;-64
2022/06/02 01:50:36;;;;;;;9.63;7.15;;;;;;;;;;5088539;27;20032;-63
2022/06/02 01:53:33;;;;;;;9.68;7.25;;;;;;;;;;5085712;28;20060;-63
2022/06/02 01:56:05;;;;;;;8.57;7.32;;;;;;;;;;5077779;28;20505;-63
2022/06/02 01:58:32;;;;;;;;;;;;;;;;;;5088924;27;20322;-63
2022/06/02 02:01:06;;;;;;;7.22;6.05;;;;;;;;;;5086543;27;20452;-64
2022/06/02 02:03:34;;;;;;;9.60;7.28;;;;;;;;;;5086581;28;20119;-63
2022/06/02 02:06:07;;;;;;;10.48;7.18;;;;;;;;;;5087828;27;20440;-63
2022/06/02 02:08:51;;;;;;;9.53;7.80;;;;;;;;;;5086098;28;20378;-63
2022/06/02 02:11:35;;;;;;;7.90;7.10;;;;;;;;;;5085732;27;20553;-63
2022/06/02 02:14:17;;;;;;;9.05;6.35;;;;;;;;;;5087920;27;20047;-63
2022/06/02 02:16:51;;;;;;;7.90;6.80;;;;;;;;;;5085725;27;20040;-64
2022/06/02 02:19:30;;;;;;;8.70;6.60;;;;;;;;;;5087911;27;20028;-63
2022/06/02 02:21:56;;;;;;;10.60;6.90;;;;;;;;;;5085130;27;20044;-63
2022/06/02 02:24:28;;;;;;;7.60;6.28;;;;;;;;;;5087966;28;20071;-63
2022/06/02 02:27:01;;;;;;;9.70;6.90;;;;;;;;;;5087816;27;20051;-63
2022/06/02 02:29:34;;;;;;;11.65;6.15;;;;;;;;;;5094291;28;20073;-63
2022/06/02 02:32:06;;;;;;;8.68;6.28;;;;;;;;;;5085870;27;20097;-64
2022/06/02 02:34:43;;;;;;;11.48;7.88;;;;;;;;;;5091721;28;20058;-64
2022/06/02 02:37:15;;;;;;;7.88;6.28;;;;;;;;;;5091316;28;20051;-64
2022/06/02 02:39:41;;;;;;;8.77;6.63;;;;;;;;;;5083026;28;20610;-64
2022/06/02 02:42:21;;;;;;;9.65;6.80;;;;;;;;;;5090054;28;20120;-63
2022/06/02 02:44:54;;;;;;;9.02;7.75;;;;;;;;;;5093523;27;20042;-64
2022/06/02 02:47:26;;;;;;;8.45;6.35;;;;;;;;;;5089809;28;20044;-64
2022/06/02 02:50:09;;;;;;;8.50;7.10;;;;;;;;;;5086009;28;20036;-64
2022/06/02 02:52:41;;;;;;;7.90;6.03;;;;;;;;;;5085052;27;20040;-64
2022/06/02 02:55:19;;;;;;;8.10;6.80;;;;;;;;;;5084560;27;20036;-64
2022/06/02 02:57:48;;;;;;;8.40;6.72;;;;;;;;;;5090120;27;20149;-64
2022/06/02 03:00:27;;;;;;;9.75;7.18;;;;;;;;;;5086045;28;20554;-64
2022/06/02 03:03:16;;;;;;;7.88;6.50;;;;;;;;;;5091629;27;20055;-64
2022/06/02 03:05:59;;;;;;;10.35;6.65;;;;;;;;;;5085309;27;20039;-64
2022/06/02 03:08:31;;;;;;;8.50;6.03;;;;;;;;;;5084352;28;20489;-64
2022/06/02 03:11:01;;;;;;;11.73;6.63;;;;;;;;;;5088310;27;20064;-64
2022/06/02 03:13:38;;;;;;;8.68;7.00;;;;;;;;;;5085081;28;20505;-64
2022/06/02 03:16:10;;;;;;;9.63;6.65;;;;;;;;;;5091739;27;20032;-64
2022/06/02 03:18:55;;;;;;;8.18;6.32;;;;;;;;;;5087448;28;20421;-63
2022/06/02 03:21:33;;;;;;;7.30;5.85;;;;;;;;;;5082743;28;20043;-64
2022/06/02 03:24:18;;;;;;;8.50;6.07;;;;;;;;;;5085300;28;20039;-64
2022/06/02 03:26:53;;;;;;;9.77;6.82;;;;;;;;;;5089258;27;20152;-64
2022/06/02 03:29:35;;;;;;;9.43;6.82;;;;;;;;;;5091307;27;20036;-64
2022/06/02 03:32:10;;;;;;;8.43;6.65;;;;;;;;;;5086644;27;20115;-64
2022/06/02 03:34:56;;;;;;;9.25;5.82;;;;;;;;;;5085192;28;20040;-64
2022/06/02 03:37:34;;;;;;;9.88;6.22;;;;;;;;;;5086306;27;20575;-64
2022/06/02 03:40:10;;;;;;;7.50;6.60;;;;;;;;;;5098576;28;20435;-64
2022/06/02 03:42:48;;;;;;;8.30;5.75;;;;;;;;;;5089083;27;20086;-64
2022/06/02 03:45:42;;;;;;;11.00;6.30;;;;;;;;;;5084914;27;20513;-64
2022/06/02 03:48:17;;;;;;;11.82;7.00;;;;;;;;;;5084739;28;20518;-64
2022/06/02 03:50:52;;;;;;;7.93;6.38;;;;;;;;;;5084047;28;20036;-64
2022/06/02 03:53:30;;;;;;;10.73;6.32;;;;;;;;;;5081941;28;20058;-64
2022/06/02 03:56:06;;;;;;;6.22;4.93;;;;;;;;;;5083705;28;20122;-64
2022/06/02 03:58:38;;;;;;;6.60;5.57;;;;;;;;;;5084994;27;20225;-64
2022/06/02 04:01:09;;;;;;;7.43;6.43;;;;;;;;;;5084309;28;20065;-64
2022/06/02 04:03:54;;;;;;;7.70;6.03;;;;;;;;;;5088439;28;20354;-63
2022/06/02 04:06:20;;;;;;;8.63;6.40;;;;;;;;;;5087765;28;20148;-64
2022/06/02 04:09:04;;;;;;;9.68;6.97;;;;;;;;;;5091290;28;20054;-64
2022/06/02 04:13:37;;;;;;;9.10;6.20;;;;;;;;;;5094837;28;20047;-64
2022/06/02 04:14:22;;;;;;;9.20;5.70;;;;;;;;;;5092163;28;20040;-64
2022/06/02 04:16:55;;;;;;;9.38;6.85;;;;;;;;;;5093793;28;20040;-63
2022/06/02 04:22:54;;;;;;;6.82;5.88;;;;;;;;;;5088921;28;20075;-64
2022/06/02 04:25:24;;;;;;;7.78;5.85;;;;;;;;;;5095991;28;20088;-64
2022/06/02 04:27:55;;;;;;;7.95;6.07;;;;;;;;;;5092189;28;20036;-64
2022/06/02 04:30:40;;;;;;;7.90;6.28;;;;;;;;;;5083369;28;20219;-64
2022/06/02 04:33:15;;;;;;;14.63;6.38;;;;;;;;;;5080815;28;20040;-64
2022/06/02 04:35:47;;;;;;;9.43;6.35;;;;;;;;;;5086721;28;20500;-64
2022/06/02 04:38:38;;;;;;;6.68;5.28;;;;;;;;;;5084564;28;20036;-64
2022/06/02 04:41:22;;;;;;;7.88;5.93;;;;;;;;;;5082633;28;20463;-64
2022/06/02 04:44:01;;;;;;;7.10;5.82;;;;;;;;;;5087946;28;20470;-64
2022/06/02 04:46:35;;;;;;;8.93;5.80;;;;;;;;;;5089557;28;20047;-64
2022/06/02 04:49:19;;;;;;;8.93;5.38;;;;;;;;;;5091164;28;20476;-64
2022/06/02 04:51:57;;;;;;;8.10;5.95;;;;;;;;;;5088698;28;20051;-64
2022/06/02 04:54:42;;;;;;;6.60;5.88;;;;;;;;;;5089405;28;20039;-64
2022/06/02 04:57:12;;;;;;;8.13;6.32;;;;;;;;;;5094328;28;20032;-64
2022/06/02 04:59:58;;;;;;;7.35;4.93;;;;;;;;;;5090715;28;20036;-64
2022/06/02 05:02:24;;;;;;;6.95;5.80;;;;;;;;;;5087951;28;20170;-64
2022/06/02 05:04:53;;;;;;;7.85;5.65;;;;;;;;;;5087672;28;20092;-64
2022/06/02 05:07:19;;;;;;;8.57;5.47;;;;;;;;;;5088748;28;20555;-64
2022/06/02 05:09:55;;;;;;;7.55;5.43;;;;;;;;;;5089101;28;20401;-64
2022/06/02 05:12:50;;;;;;;6.80;4.63;;;;;;;;;;5092258;28;20051;-64
2022/06/02 05:15:22;;;;;;;7.13;6.07;;;;;;;;;;5088571;28;20059;-64
2022/06/02 05:17:51;;;;;;;5.68;4.40;;;;;;;;;;5092359;28;20048;-64
2022/06/02 05:20:30;;;;;;;7.28;5.28;;;;;;;;;;5087652;28;20047;-64
2022/06/02 05:23:02;;;;;;;7.10;5.35;;;;;;;;;;5084153;28;20585;-64
2022/06/02 05:25:31;;;;;;;10.50;4.70;;;;;;;;;;5090540;28;20039;-64
2022/06/02 05:28:10;;;;;;;5.93;4.40;;;;;;;;;;5087799;28;20389;-64
2022/06/02 05:31:02;;;;;;;8.65;4.57;;;;;;;;;;5085316;28;20085;-65
2022/06/02 05:33:28;;;;;;;6.07;4.88;;;;;;;;;;5069392;28;20051;-64
2022/06/02 05:35:57;;;;;;;6.63;4.78;;;;;;;;;;5094276;28;20115;-64
2022/06/02 05:38:59;;;;;;;5.70;4.18;;;;;;;;;;5084920;28;20454;-64
2022/06/02 05:41:51;;;;;;;5.25;4.47;;;;;;;;;;5042419;28;20056;-64
2022/06/02 05:44:28;;;;;;;6.47;3.97;;;;;;;;;;5099376;27;20491;-64
2022/06/02 05:47:07;;;;;;;5.88;4.00;;;;;;;;;;5090484;28;20036;-64
2022/06/02 05:49:56;;;;;;;6.90;3.83;;;;;;;;;;5091265;28;20048;-64
2022/06/02 05:52:29;;;;;;;6.38;3.47;;;;;;;;;;5086364;27;20047;-64
2022/06/02 05:55:04;;;;;;;6.03;2.97;;;;;;;;;;5089364;28;20457;-65
2022/06/02 05:57:41;;;;;;;4.63;3.20;;;;;;;;;;5087326;28;20662;-64
2022/06/02 06:00:29;;;;;;;5.40;2.40;;;;;;;;;;5086542;27;20052;-64
2022/06/02 06:03:04;;;;;;;11.55;3.53;;;;;;;;;;5086822;27;20044;-64
2022/06/02 06:05:30;;;;;;;3.95;2.75;;;;;;;;;;5087454;28;20052;-64
2022/06/02 06:08:08;;;;;;;5.47;2.83;;;;;;;;;;5090865;28;20481;-64
2022/06/02 06:10:40;;;;;;;3.83;2.42;;;;;;;;;;5086451;27;20064;-64
2022/06/02 06:13:07;;;;;;;4.10;3.40;;;;;;;;;;5092489;28;20513;-64
2022/06/02 06:15:33;;;;;;;4.57;2.55;;;;;;;;;;5096562;28;20300;-64
2022/06/02 06:18:26;;;;;;;4.93;2.55;;;;;;;;;;5089411;28;20036;-64
2022/06/02 06:21:02;;;;;;;3.07;1.90;;;;;;;;;;5075510;27;20056;-64
2022/06/02 06:23:44;;;;;;;3.47;1.95;;;;;;;;;;5088300;28;20712;-64
2022/06/02 06:26:10;;;;;;;3.33;2.20;;;;;;;;;;5088722;27;20420;-64
2022/06/02 06:28:41;;;;;;;3.47;1.80;;;;;;;;;;5087113;28;20040;-64
2022/06/02 06:31:12;;;;;;;13.65;2.10;;;;;;;;;;5089751;28;20553;-64
2022/06/02 06:33:47;;;;;;;4.80;1.88;;;;;;;;;;5096448;27;20136;-64
2022/06/02 06:36:29;;;;;;;3.60;1.75;;;;;;;;;;5085814;28;20347;-64
2022/06/02 06:38:55;;;;;;;2.88;1.50;;;;;;;;;;5090044;28;20036;-64
2022/06/02 06:41:22;;;;;;;2.40;1.60;;;;;;;;;;5086083;27;20517;-63
2022/06/02 06:43:48;;;;;;;3.92;2.28;;;;;;;;;;5087789;28;20040;-64
2022/06/02 06:46:17;;;;;;;3.38;2.03;;;;;;;;;;5086471;28;20181;-64
2022/06/02 06:48:57;;;;;;;3.88;1.52;;;;;;;;;;5088373;27;20036;-64
2022/06/02 06:51:25;;;;;;;3.47;1.80;;;;;;;;;;5087154;27;20065;-64
2022/06/02 06:54:10;;;;;;;3.38;1.77;;;;;;;;;;5090715;28;20476;-63
2022/06/02 06:56:40;;;;;;;6.13;1.88;;;;;;;;;;5084536;27;20053;-64
2022/06/02 06:59:13;;;;;;;3.35;1.38;;;;;;;;;;5087629;27;20118;-64
2022/06/02 07:01:43;;;;;;;2.25;1.52;;;;;;;;;;5087344;27;20044;-64
2022/06/02 07:04:15;;;;;;;2.97;1.90;;;;;;;;;;5087664;28;20508;-64
2022/06/02 07:06:55;;;;;;;3.65;2.33;;;;;;;;;;5087101;27;20044;-64
2022/06/02 07:09:28;;;;;;;3.50;1.83;;;;;;;;;;5088321;28;20375;-64
2022/06/02 07:14:52;;;;;;;3.08;2.30;;;;;;;;;;5089401;28;20052;-66
2022/06/02 07:17:26;;;;;;;5.57;2.30;;;;;;;;;;5086157;28;20462;-63
2022/06/02 07:20:04;;;;;;;3.40;1.85;;;;;;;;;;5087865;27;20096;-64
2022/06/02 07:22:33;;;;;;;3.42;1.98;;;;;;;;;;5085047;28;20043;-64
2022/06/02 07:25:18;;;;;;;4.00;1.83;;;;;;;;;;5085764;28;20040;-64
2022/06/02 07:27:52;;;;;;;3.78;1.85;;;;;;;;;;5089128;28;20603;-64
2022/06/02 07:30:20;;;;;;;3.70;2.20;;;;;;;;;;5091159;27;20040;-64
2022/06/02 07:33:02;;;;;;;4.78;2.08;;;;;;;;;;5086073;28;20048;-64
2022/06/02 07:35:47;;;;;;;3.05;2.00;;;;;;;;;;5086169;27;20566;-65
2022/06/02 07:38:32;;;;;;;4.05;1.95;;;;;;;;;;5093765;28;20047;-64
2022/06/02 07:41:07;;;;;;;3.85;2.47;;;;;;;;;;5084725;28;20039;-65
2022/06/02 07:43:34;;;;;;;3.03;2.17;;;;;;;;;;5088227;27;20543;-64
2022/06/02 07:46:09;;;;;;;6.07;1.98;;;;;;;;;;5088197;28;20269;-64
2022/06/02 07:48:35;;;;;;;3.17;1.92;;;;;;;;;;5087186;27;20052;-64
2022/06/02 07:51:07;;;;;;;3.17;1.80;;;;;;;;;;5087581;27;20039;-64
2022/06/02 07:53:53;;;;;;;4.78;1.98;;;;;;;;;;5088305;28;20051;-64
2022/06/02 07:56:19;;;;;;;2.45;1.63;;;;;;;;;;5086416;28;20097;-64
2022/06/02 07:59:01;;;;;;;2.45;1.63;;;;;;;;;;5088230;28;20129;-65
2022/06/02 08:01:46;;;;;;;2.63;1.65;;;;;;;;;;5085758;28;20978;-64
2022/06/02 08:04:29;;;;;;;4.85;1.88;;;;;;;;;;5088513;28;20043;-64
2022/06/02 08:06:55;;;;;;;;;;;;;;;;;;5089530;28;20594;-64
2022/06/02 08:09:33;;;;;;;5.28;2.40;;;;;;;;;;5085436;27;20404;-64
2022/06/02 08:12:03;;;;;;;2.63;1.60;;;;;;;;;;5086023;28;20075;-65
2022/06/02 08:14:29;;;;;;;3.70;2.08;;;;;;;;;;5088346;28;20055;-65
2022/06/02 08:17:07;;;;;;;2.63;1.70;;;;;;;;;;5094152;28;20157;-64
2022/06/02 08:19:43;;;;;;;5.72;1.83;;;;;;;;;;5085687;28;20051;-64
2022/06/02 08:22:14;;;;;;;4.53;1.92;;;;;;;;;;5084292;28;20044;-64
2022/06/02 08:24:47;;;;;;;4.72;1.80;;;;;;;;;;5089844;28;20027;-64
2022/06/02 08:27:45;;;;;;;3.33;2.10;;;;;;;;;;5086363;28;20074;-64
2022/06/02 08:30:18;;;;;;;4.80;2.30;;;;;;;;;;5060573;28;20036;-64
2022/06/02 08:32:44;;;;;;;4.13;1.98;;;;;;;;;;5089381;28;20089;-65
2022/06/02 08:35:13;;;;;;;3.33;1.80;;;;;;;;;;5087578;28;20446;-64
2022/06/02 08:37:58;;;;;;;3.88;1.75;;;;;;;;;;5090922;28;20080;-65
2022/06/02 08:40:28;;;;;;;3.38;1.80;;;;;;;;;;5090883;28;20116;-65
2022/06/02 08:42:54;;;;;;;4.97;2.45;;;;;;;;;;5094473;28;20051;-64
2022/06/02 08:45:32;;;;;;;3.60;2.15;;;;;;;;;;5085836;28;20420;-64
2022/06/02 08:48:08;;;;;;;3.33;2.10;;;;;;;;;;5078482;28;20660;-64
2022/06/02 08:50:40;;;;;;;2.90;2.00;;;;;;;;;;5076625;28;20270;-64
2022/06/02 08:53:19;;;;;;;6.13;2.38;;;;;;;;;;5087155;28;20101;-64
2022/06/02 08:55:45;;;;;;;2.47;1.75;;;;;;;;;;5093383;28;20122;-65
2022/06/02 08:58:11;;;;;;;4.55;2.08;;;;;;;;;;5093796;28;20039;-64
2022/06/02 09:00:56;;;;;;;4.88;1.80;;;;;;;;;;5086489;28;20065;-64
2022/06/02 09:03:34;;;;;;;3.42;1.85;;;;;;;;;;5086945;28;20044;-65
2022/06/02 09:06:02;;;;;;;2.65;1.73;;;;;;;;;;5094831;28;20035;-64
2022/06/02 09:08:32;;;;;;;2.80;1.80;;;;;;;;;;5084966;28;20040;-65
2022/06/02 09:11:16;;;;;;;4.35;1.50;;;;;;;;;;5084351;28;20090;-65
2022/06/02 09:13:42;;;;;;;4.43;1.77;;;;;;;;;;5088189;28;20051;-65
2022/06/02 09:16:21;;;;;;;3.53;1.90;;;;;;;;;;5084556;28;20082;-65
2022/06/02 09:19:02;;;;;;;2.88;1.92;;;;;;;;;;5097287;28;20086;-65
2022/06/02 09:21:35;;;;;;;7.32;2.60;;;;;;;;;;5087402;28;20051;-65
2022/06/02 09:24:20;;;;;;;2.55;1.70;;;;;;;;;;5088800;27;20449;-65
2022/06/02 09:26:59;;;;;;;2.22;1.42;;;;;;;;;;5088996;28;20040;-65
2022/06/02 09:29:31;;;;;;;3.60;1.77;;;;;;;;;;5088782;28;20048;-65
2022/06/02 09:31:57;;;;;;;2.80;1.90;;;;;;;;;;5088295;28;20032;-65
2022/06/02 09:34:29;;;;;;;3.10;2.17;;;;;;;;;;5089921;27;20135;-64
2022/06/02 09:37:14;;;;;;;3.10;2.07;;;;;;;;;;5087682;28;20690;-65
2022/06/02 09:39:59;;;;;;;3.65;2.00;;;;;;;;;;5089498;28;20370;-65
2022/06/02 09:42:44;;;;;;;3.10;2.00;;;;;;;;;;5089091;27;20054;-65
2022/06/02 09:45:19;;;;;;;4.22;2.03;;;;;;;;;;5086750;28;20083;-65
2022/06/02 09:47:53;;;;;;;4.30;1.70;;;;;;;;;;5094961;27;20040;-64
2022/06/02 09:50:22;;;;;;;2.80;1.73;;;;;;;;;;5089077;27;20044;-65
2022/06/02 09:52:48;;;;;;;3.25;1.80;;;;;;;;;;5088388;27;20112;-65
2022/06/02 09:55:17;;;;;;;2.13;1.80;;;;;;;;;;5087824;28;20309;-64
2022/06/02 09:57:57;;;;;;;8.25;2.25;;;;;;;;;;5089000;28;20055;-64
2022/06/02 10:00:23;;;;;;;8.15;2.50;;;;;;;;;;5096749;27;20035;-64
2022/06/02 10:03:02;;;;;;;2.65;1.80;;;;;;;;;;5098609;27;20123;-64
2022/06/02 10:05:31;;;;;;;3.28;2.05;;;;;;;;;;5092011;28;20059;-64
2022/06/02 10:07:57;;;;;;;4.20;2.03;;;;;;;;;;5090186;27;20218;-64
2022/06/02 10:10:30;;;;;;;3.20;1.67;;;;;;;;;;5085257;28;20043;-64
2022/06/02 10:13:15;;;;;;;2.88;1.77;;;;;;;;;;5087983;27;20052;-64
2022/06/02 10:15:41;;;;;;;2.70;1.52;;;;;;;;;;5091052;28;20052;-64
2022/06/02 10:18:10;;;;;;;3.15;1.60;;;;;;;;;;5087033;28;20443;-64
2022/06/02 10:20:43;;;;;;;2.97;1.73;;;;;;;;;;5090238;28;20389;-64
2022/06/02 10:23:32;;;;;;;3.75;1.85;;;;;;;;;;5086854;27;20545;-64
2022/06/02 10:26:04;;;;;;;2.78;1.85;;;;;;;;;;5087531;27;20044;-64
2022/06/02 10:28:48;;;;;;;2.88;1.60;;;;;;;;;;5086568;28;20044;-64
2022/06/02 10:31:34;;;;;;;2.88;1.95;;;;;;;;;;5086307;28;20605;-64
2022/06/02 10:34:09;;;;;;;3.92;1.95;;;;;;;;;;5087734;27;20054;-65
2022/06/02 10:37:00;;;;;;;2.38;1.52;;;;;;;;;;5087322;28;20093;-64
2022/06/02 10:39:36;;;;;;;2.72;1.80;;;;;;;;;;5069752;28;20060;-64
2022/06/02 10:42:05;;;;;;;3.30;1.83;;;;;;;;;;5086482;27;20130;-64
2022/06/02 10:44:38;;;;;;;4.68;1.80;;;;;;;;;;5088286;28;20028;-64
2022/06/02 10:47:04;;;;;;;;;;;;;;;;;;5093859;28;20386;-64
2022/06/02 10:49:45;;;;;;;2.47;1.90;;;;;;;;;;5086635;27;19937;-64
2022/06/02 10:52:14;;;;;;;2.95;1.92;;;;;;;;;;5087211;28;20509;-64
2022/06/02 10:55:09;;;;;;;3.38;1.77;;;;;;;;;;5091407;27;20040;-64
2022/06/02 10:57:45;;;;;;;4.40;1.60;;;;;;;;;;5091038;28;20035;-64
2022/06/02 11:00:17;;;;;;;3.13;1.80;;;;;;;;;;5090401;27;20075;-65
2022/06/02 11:03:02;;;;;;;4.25;1.60;;;;;;;;;;5088538;27;20036;-65
2022/06/02 11:05:47;;;;;;;2.90;1.95;;;;;;;;;;5087661;28;20051;-64
2022/06/02 11:08:42;;;;;;;5.15;2.00;;;;;;;;;;5085905;27;20040;-64
2022/06/02 11:11:27;;;;;;;3.70;1.65;;;;;;;;;;5092943;28;20096;-64
2022/06/02 11:14:12;;;;;;;3.55;1.73;;;;;;;;;;5088522;28;20526;-63
2022/06/02 11:16:41;;;;;;;3.00;2.17;;;;;;;;;;5092038;27;20039;-64
2022/06/02 11:19:19;;;;;;;4.60;1.67;;;;;;;;;;5087605;27;20410;-63
2022/06/02 11:21:54;;;;;;;2.67;1.60;;;;;;;;;;5087468;28;20048;-64
2022/06/02 11:24:30;;;;;;;2.30;1.40;;;;;;;;;;5090973;27;20040;-64
2022/06/02 11:26:56;;;;;;;2.05;1.40;;;;;;;;;;5086302;28;20091;-64
2022/06/02 11:29:22;;;;;;;10.88;2.53;;;;;;;;;;5087927;28;20482;-64
2022/06/02 11:31:57;;;;;;;4.93;1.85;;;;;;;;;;5093381;28;20129;-64
2022/06/02 11:34:29;;;;;;;2.80;1.40;;;;;;;;;;5095606;28;20027;-64
2022/06/02 11:37:07;;;;;;;4.70;1.90;;;;;;;;;;5085497;28;20393;-64
2022/06/02 11:39:33;;;;;;;6.60;2.20;;;;;;;;;;5091714;28;20040;-64
2022/06/02 11:42:08;;;;;;;5.57;2.08;;;;;;;;;;5092853;27;20036;-64
2022/06/02 11:44:50;;;;;;;2.65;1.65;;;;;;;;;;5086294;28;20536;-64
2022/06/02 11:47:26;;;;;;;3.47;1.85;;;;;;;;;;5085565;28;20393;-64
2022/06/02 11:50:16;;;;;;;4.88;1.85;;;;;;;;;;5089074;28;20052;-64
2022/06/02 11:52:51;;;;;;;3.38;2.42;;;;;;;;;;5087086;28;20054;-64
2022/06/02 11:55:30;;;;;;;3.85;1.80;;;;;;;;;;5087191;28;20040;-64
2022/06/02 11:58:03;;;;;;;4.05;1.65;;;;;;;;;;5092219;28;20089;-64
2022/06/02 12:00:29;;;;;;;;;;;;;;;;;;5090090;28;20121;-64
2022/06/02 12:03:01;;;;;;;9.40;2.60;;;;;;;;;;5096567;28;20348;-64
2022/06/02 12:05:39;;;;;;;2.40;1.70;;;;;;;;;;5095724;28;20364;-64
2022/06/02 12:08:26;;;;;;;4.13;1.75;;;;;;;;;;5094160;28;20077;-64
2022/06/02 12:11:12;;;;;;;2.15;1.35;;;;;;;;;;5091769;28;20457;-63
2022/06/02 12:13:39;;;;;;;2.90;1.55;;;;;;;;;;5093907;27;20058;-64
2022/06/02 12:16:09;;;;;;;5.47;2.42;;;;;;;;;;5091196;28;20413;-64
2022/06/02 12:18:52;;;;;;;3.08;1.85;;;;;;;;;;5092189;28;20083;-64
2022/06/02 12:21:28;;;;;;;2.58;1.55;;;;;;;;;;5094813;28;20172;-64
2022/06/02 12:23:57;;;;;;;4.03;1.73;;;;;;;;;;5096704;28;20039;-64
2022/06/02 12:26:23;;;;;;;5.63;1.80;;;;;;;;;;5092955;28;20092;-64
2022/06/02 12:28:49;;;;;;;4.88;1.98;;;;;;;;;;5091804;28;20040;-64
2022/06/02 12:31:21;;;;;;;2.15;1.58;;;;;;;;;;5083603;28;20374;-64
2022/06/02 12:33:47;;;;;;;4.97;1.70;;;;;;;;;;5087854;28;20268;-64
2022/06/02 12:36:14;;;;;;;2.72;1.80;;;;;;;;;;5081813;28;20044;-64
2022/06/02 12:38:40;;;;;;;2.40;1.85;;;;;;;;;;5084173;28;20047;-64
2022/06/02 12:41:24;;;;;;;4.40;1.60;;;;;;;;;;5092675;28;20031;-64
2022/06/02 12:43:53;;;;;;;2.58;1.27;;;;;;;;;;5085567;28;20386;-65
2022/06/02 12:46:29;;;;;;;5.00;1.85;;;;;;;;;;5091264;28;20047;-64
2022/06/02 12:49:07;;;;;;;3.70;1.42;;;;;;;;;;5092321;28;20044;-65
2022/06/02 12:51:49;;;;;;;4.43;1.80;;;;;;;;;;5082724;28;20040;-65
2022/06/02 12:54:24;;;;;;;2.38;1.45;;;;;;;;;;5089587;27;20028;-65
2022/06/02 12:56:50;;;;;;;2.42;1.50;;;;;;;;;;5089788;27;20054;-65
2022/06/02 12:59:34;;;;;;;4.85;2.28;;;;;;;;;;5097522;28;20122;-65
2022/06/02 13:02:06;;;;;;;2.28;1.63;;;;;;;;;;5086047;27;20551;-65
2022/06/02 13:04:34;;;;;;;3.90;1.80;;;;;;;;;;5089647;28;20052;-65
2022/06/02 13:07:15;;;;;;;7.30;2.67;;;;;;;;;;5089035;28;20177;-65
2022/06/02 13:09:55;;;;;;;3.08;2.28;;;;;;;;;;5092531;28;20027;-65
2022/06/02 13:12:40;;;;;;;6.30;2.38;;;;;;;;;;5090997;27;20294;-64
2022/06/02 13:15:07;;;;;;;2.05;1.58;;;;;;;;;;5091858;28;20044;-65
2022/06/02 13:17:50;;;;;;;2.97;1.55;;;;;;;;;;5087724;28;20136;-65
2022/06/02 13:20:31;;;;;;;3.28;1.85;;;;;;;;;;5082597;28;20047;-65
2022/06/02 13:22:57;;;;;;;2.97;1.70;;;;;;;;;;5088403;27;20126;-65
2022/06/02 13:25:42;;;;;;;2.30;1.58;;;;;;;;;;5094476;28;20054;-65
2022/06/02 13:28:08;;;;;;;3.10;1.90;;;;;;;;;;5090266;27;20349;-65
2022/06/02 13:30:53;;;;;;;3.97;2.00;;;;;;;;;;5088563;27;20048;-65
2022/06/02 13:33:28;;;;;;;3.78;2.50;;;;;;;;;;5091128;27;20036;-65
2022/06/02 13:36:13;;;;;;;4.10;2.80;;;;;;;;;;5094610;27;20044;-66
2022/06/02 13:39:02;;;;;;;5.22;2.80;;;;;;;;;;5088689;28;20170;-66
2022/06/02 13:41:31;;;;;;;4.90;2.25;;;;;;;;;;5093264;27;20048;-66
2022/06/02 13:44:12;;;;;;;8.55;2.63;;;;;;;;;;5088857;28;20620;-66
2022/06/02 13:46:38;;;;;;;6.25;2.70;;;;;;;;;;5088312;27;20129;-66
2022/06/02 13:49:17;;;;;;;4.65;2.28;;;;;;;;;;5086503;28;20496;-66
2022/06/02 13:51:49;;;;;;;4.30;2.75;;;;;;;;;;5097820;28;20112;-65
2022/06/02 14:00:09;;;;;;;2.90;2.30;;;;;;;;;;5096535;27;20840;-66
2022/06/02 14:02:45;;;;;;;2.78;1.95;;;;;;;;;;5089466;27;20044;-66
2022/06/02 14:05:14;;;;;;;4.75;2.03;;;;;;;;;;5095689;28;20143;-66
2022/06/02 14:07:43;;;;;;;3.13;2.00;;;;;;;;;;5088808;27;20036;-66
2022/06/02 14:10:28;;;;;;;3.05;2.08;;;;;;;;;;5092333;27;20032;-66
2022/06/02 14:12:57;;;;;;;4.95;2.33;;;;;;;;;;5091880;27;20594;-66
2022/06/02 14:15:26;;;;;;;3.28;1.90;;;;;;;;;;5097405;27;20082;-66
2022/06/02 14:17:55;;;;;;;4.10;2.35;;;;;;;;;;5090060;27;20107;-66
2022/06/02 14:20:40;;;;;;;4.60;2.08;;;;;;;;;;5090718;27;20082;-66
2022/06/02 14:23:20;;;;;;;3.60;1.98;;;;;;;;;;5086717;28;20169;-66
2022/06/02 14:25:58;;;;;;;4.25;2.05;;;;;;;;;;5089514;27;20068;-66
2022/06/02 14:28:31;;;;;;;4.32;2.40;;;;;;;;;;5086459;27;20047;-66
2022/06/02 14:31:03;;;;;;;3.78;2.30;;;;;;;;;;5086323;27;20497;-66
2022/06/02 14:33:29;;;;;;;;;;;;;;;;;;5087274;27;20516;-66
2022/06/02 14:36:02;;;;;;;5.10;2.22;;;;;;;;;;5086949;28;19924;-66
2022/06/02 14:38:28;;;;;;;;;;;;;;;;;;5086310;27;20358;-66
2022/06/02 14:41:04;;;;;;;5.50;2.20;;;;;;;;;;5092187;27;19916;-65
2022/06/02 14:43:39;;;;;;;3.28;1.77;;;;;;;;;;5087697;27;20040;-66
2022/06/02 14:46:05;;;;;;;4.70;2.30;;;;;;;;;;5094468;28;20154;-66
2022/06/02 14:48:37;;;;;;;4.30;2.10;;;;;;;;;;5091241;28;20032;-66
2022/06/02 14:51:18;;;;;;;4.43;2.00;;;;;;;;;;5086775;28;20036;-66
2022/06/02 14:53:50;;;;;;;5.18;2.60;;;;;;;;;;5088321;28;20056;-66
2022/06/02 14:56:28;;;;;;;3.95;2.35;;;;;;;;;;5093063;28;20498;-66
2022/06/02 14:59:14;;;;;;;3.05;2.15;;;;;;;;;;5089746;27;20486;-66
2022/06/02 15:01:51;;;;;;;3.88;1.90;;;;;;;;;;5090542;27;20097;-66
2022/06/02 15:04:41;;;;;;;4.55;2.25;;;;;;;;;;5087488;28;20046;-67
2022/06/02 15:07:17;;;;;;;4.50;2.10;;;;;;;;;;5089525;27;20039;-66
2022/06/02 15:09:51;;;;;;;3.30;2.20;;;;;;;;;;5089905;28;20040;-66
2022/06/02 15:12:27;;;;;;;3.92;2.03;;;;;;;;;;5089094;27;20090;-66
2022/06/02 15:15:12;;;;;;;3.00;1.40;;;;;;;;;;5087593;28;20047;-66
2022/06/02 15:17:57;;;;;;;3.20;1.95;;;;;;;;;;5085270;27;20039;-67
2022/06/02 15:20:25;;;;;;;4.70;2.15;;;;;;;;;;5089368;27;20036;-66
2022/06/02 15:23:09;;;;;;;3.65;2.40;;;;;;;;;;5094935;28;20036;-66
2022/06/02 15:25:54;;;;;;;6.40;1.70;;;;;;;;;;5094664;28;20088;-67
2022/06/02 15:28:39;;;;;;;6.00;1.70;;;;;;;;;;5095038;28;20046;-67
2022/06/02 15:31:26;;;;;;;3.50;2.03;;;;;;;;;;5090561;28;20043;-67
2022/06/02 15:34:11;;;;;;;2.30;1.60;;;;;;;;;;5090775;27;20938;-66
2022/06/02 15:36:40;;;;;;;3.03;1.90;;;;;;;;;;5087248;27;20677;-66
2022/06/02 15:39:13;;;;;;;9.75;2.17;;;;;;;;;;5105656;27;21028;-65
2022/06/02 15:41:42;;;;;;;5.32;1.75;;;;;;;;;;5101679;27;20112;-65
2022/06/02 15:44:08;;;;;;;5.97;2.17;;;;;;;;;;5105125;28;20067;-65
2022/06/02 15:46:37;;;;;;;3.22;2.38;;;;;;;;;;5102605;28;20562;-65
2022/06/02 15:49:04;;;;;;;3.60;1.63;;;;;;;;;;5102849;28;20078;-65